Time;durP1;ratioP1;P1;durP2;ratioP2;P2;SDS_P1;SDS_P2;PMS_P1;PMS_P2;Temp;Humidity;BMP_temperature;BMP_pressure;BME280_temperature;BME280_humidity;BME280_pressure;Samples;Min_cycle;Max_cycle;Signal;HPM_P1;HPM_P2
2023/07/30 00:00:50;;;;;;;15.80;15.20;;;20.00;45.40;;;;;;4977519;28;20505;-81
2023/07/30 00:03:18;;;;;;;16.67;16.07;;;20.00;34.70;;;;;;4982326;28;20972;-80
2023/07/30 00:05:54;;;;;;;16.47;15.77;;;20.00;33.50;;;;;;4981150;28;21002;-82
2023/07/30 00:08:23;;;;;;;17.30;16.50;;;20.00;27.00;;;;;;4983244;28;20457;-81
2023/07/30 00:10:52;;;;;;;17.60;16.80;;;20.00;27.00;;;;;;4980682;28;20541;-81
2023/07/30 00:13:20;;;;;;;17.57;16.77;;;20.00;27.90;;;;;;4980960;28;21012;-80
2023/07/30 00:15:48;;;;;;;17.03;16.13;;;19.90;25.70;;;;;;4979041;28;21087;-81
2023/07/30 00:18:17;;;;;;;17.30;16.60;;;20.00;27.60;;;;;;4983256;28;20461;-81
2023/07/30 00:20:45;;;;;;;17.03;16.10;;;19.90;32.70;;;;;;4983432;28;21475;-80
2023/07/30 00:23:14;;;;;;;17.27;16.37;;;19.90;36.80;;;;;;4981861;28;20475;-81
2023/07/30 00:25:42;;;;;;;17.20;16.50;;;19.90;46.80;;;;;;4982480;28;20447;-81
2023/07/30 00:28:10;;;;;;;17.00;16.30;;;19.80;41.50;;;;;;4972579;28;20466;-81
2023/07/30 00:30:38;;;;;;;17.10;16.40;;;19.80;39.50;;;;;;4983422;28;20750;-81
2023/07/30 00:33:06;;;;;;;17.10;16.30;;;19.80;28.80;;;;;;4981287;28;20500;-81
2023/07/30 00:35:34;;;;;;;16.90;16.07;;;19.70;35.20;;;;;;4973569;28;20459;-80
2023/07/30 00:38:06;;;;;;;16.40;15.80;;;19.70;41.10;;;;;;4983081;28;20466;-81
2023/07/30 00:40:40;;;;;;;16.87;16.00;;;19.80;35.10;;;;;;4979630;28;20500;-82
2023/07/30 00:43:09;;;;;;;17.17;16.10;;;19.80;22.30;;;;;;4978369;28;20480;-81
2023/07/30 00:45:39;;;;;;;16.23;15.63;;;19.80;20.80;;;;;;4980158;28;20458;-81
2023/07/30 00:48:07;;;;;;;16.07;15.40;;;19.80;2.40;;;;;;4980053;28;20465;-81
2023/07/30 00:50:36;;;;;;;16.60;15.90;;;19.80;4.80;;;;;;4980582;28;20465;-81
2023/07/30 00:53:04;;;;;;;16.03;15.43;;;19.80;7.00;;;;;;4979077;28;20478;-81
2023/07/30 00:55:32;;;;;;;16.90;16.00;;;19.80;1.00;;;;;;4979988;28;20457;-81
2023/07/30 00:58:03;;;;;;;16.20;15.50;;;19.90;1.00;;;;;;4978973;28;20455;-81
2023/07/30 01:00:31;;;;;;;15.90;15.17;;;19.80;1.00;;;;;;4983748;28;20462;-82
2023/07/30 01:03:01;;;;;;;16.10;15.53;;;19.90;7.10;;;;;;4980899;28;20529;-81
2023/07/30 01:05:29;;;;;;;16.17;15.60;;;19.80;1.00;;;;;;4979199;28;20459;-81
2023/07/30 01:07:57;;;;;;;16.27;15.67;;;19.80;6.20;;;;;;4978875;28;20823;-81
2023/07/30 01:10:26;;;;;;;15.67;15.17;;;19.80;11.50;;;;;;4980838;28;20470;-81
2023/07/30 01:12:55;;;;;;;16.00;15.40;;;19.80;9.80;;;;;;4982545;28;20498;-80
2023/07/30 01:15:24;;;;;;;17.20;16.40;;;19.80;12.80;;;;;;4979553;28;20500;-81
2023/07/30 01:17:53;;;;;;;16.33;15.53;;;19.80;8.50;;;;;;4985094;28;20467;-81
2023/07/30 01:20:21;;;;;;;16.43;15.73;;;19.70;7.00;;;;;;4978722;28;20804;-80
2023/07/30 01:22:51;;;;;;;16.83;15.77;;;19.70;11.60;;;;;;4980479;28;20475;-80
2023/07/30 01:25:21;;;;;;;16.57;15.87;;;19.70;5.80;;;;;;4979052;28;21020;-81
2023/07/30 01:27:52;;;;;;;16.50;15.80;;;19.70;7.00;;;;;;4980124;28;20613;-81
2023/07/30 01:30:26;;;;;;;16.30;15.60;;;19.70;11.90;;;;;;4979776;28;20461;-81
2023/07/30 01:32:55;;;;;;;16.30;15.50;;;19.70;9.70;;;;;;4981811;28;20550;-81
2023/07/30 01:35:27;;;;;;;16.33;15.73;;;19.70;7.10;;;;;;4980666;28;21141;-81
2023/07/30 01:37:58;;;;;;;17.00;15.93;;;19.60;12.50;;;;;;4981121;28;20468;-81
2023/07/30 01:40:26;;;;;;;16.33;15.53;;;19.60;11.20;;;;;;4980065;28;20455;-81
2023/07/30 01:42:54;;;;;;;15.60;14.93;;;19.60;9.60;;;;;;4980663;28;20474;-81
2023/07/30 01:45:22;;;;;;;15.70;15.10;;;19.60;6.50;;;;;;4979642;28;20816;-81
2023/07/30 01:47:50;;;;;;;16.03;15.10;;;19.60;5.60;;;;;;4982489;28;20473;-81
2023/07/30 01:50:18;;;;;;;15.70;15.00;;;19.60;5.30;;;;;;4980402;28;20450;-81
2023/07/30 01:52:47;;;;;;;14.87;14.30;;;19.50;1.00;;;;;;4978762;28;20814;-81
2023/07/30 01:55:17;;;;;;;15.03;14.50;;;19.60;5.70;;;;;;4978740;28;20462;-81
2023/07/30 01:57:45;;;;;;;15.97;15.27;;;19.60;1.00;;;;;;4978327;28;20462;-81
2023/07/30 02:00:13;;;;;;;14.97;14.37;;;19.50;1.00;;;;;;4974114;28;20705;-81
2023/07/30 02:02:41;;;;;;;14.60;14.20;;;19.50;1.00;;;;;;4977311;28;20470;-82
2023/07/30 02:05:10;;;;;;;14.50;14.10;;;19.50;1.00;;;;;;4979385;28;20527;-82
2023/07/30 02:07:38;;;;;;;14.60;14.10;;;19.40;1.00;;;;;;4979208;28;20458;-82
2023/07/30 02:10:07;;;;;;;14.60;14.20;;;19.40;1.00;;;;;;4977675;28;20505;-80
2023/07/30 02:12:36;;;;;;;15.00;14.50;;;19.40;1.00;;;;;;4978186;28;20488;-82
2023/07/30 02:15:06;;;;;;;14.57;14.17;;;19.40;1.00;;;;;;4973669;28;20538;-82
2023/07/30 02:17:34;;;;;;;14.90;14.40;;;19.40;1.00;;;;;;4977047;28;20455;-81
2023/07/30 02:20:02;;;;;;;14.53;14.13;;;19.40;1.00;;;;;;4976363;28;20556;-82
2023/07/30 02:22:30;;;;;;;15.37;14.80;;;19.40;1.00;;;;;;4977525;28;20557;-83
2023/07/30 02:24:59;;;;;;;14.57;14.07;;;19.40;1.00;;;;;;4977905;28;20491;-82
2023/07/30 02:27:27;;;;;;;14.73;14.20;;;19.30;1.00;;;;;;4977829;28;20494;-81
2023/07/30 02:29:56;;;;;;;14.80;14.30;;;19.30;1.00;;;;;;4977485;28;20459;-82
2023/07/30 02:32:25;;;;;;;15.00;14.50;;;19.30;1.00;;;;;;4975162;28;20577;-83
2023/07/30 02:34:53;;;;;;;15.50;14.90;;;19.40;1.00;;;;;;4978071;28;20823;-81
2023/07/30 02:37:21;;;;;;;14.50;14.10;;;19.30;1.00;;;;;;4976285;28;20560;-81
2023/07/30 02:39:49;;;;;;;14.63;14.23;;;19.30;1.00;;;;;;4977476;28;20454;-81
2023/07/30 02:42:17;;;;;;;15.20;14.60;;;19.30;1.00;;;;;;4980254;28;20482;-82
2023/07/30 02:44:45;;;;;;;15.07;14.60;;;19.30;1.00;;;;;;4974657;28;20557;-82
2023/07/30 02:47:15;;;;;;;16.00;15.10;;;19.30;1.00;;;;;;4977097;28;20906;-80
2023/07/30 02:49:43;;;;;;;14.77;14.27;;;19.30;1.00;;;;;;4978418;28;20459;-82
2023/07/30 02:52:11;;;;;;;15.33;14.73;;;19.30;1.00;;;;;;4977634;28;20470;-82
2023/07/30 02:54:39;;;;;;;15.70;15.07;;;19.30;1.00;;;;;;4975856;28;20489;-81
2023/07/30 02:57:08;;;;;;;15.13;14.63;;;19.30;1.00;;;;;;4976337;28;20466;-81
2023/07/30 02:59:37;;;;;;;15.73;15.10;;;19.20;1.00;;;;;;4976859;28;20463;-82
2023/07/30 03:02:06;;;;;;;15.47;14.87;;;19.30;1.00;;;;;;4978553;28;21027;-82
2023/07/30 03:04:35;;;;;;;15.30;14.80;;;19.30;1.00;;;;;;4981624;28;20541;-81
2023/07/30 03:07:04;;;;;;;15.00;14.50;;;19.20;1.00;;;;;;4978652;28;20472;-81
2023/07/30 03:09:32;;;;;;;15.23;14.73;;;19.30;1.00;;;;;;4979722;28;20454;-81
2023/07/30 03:12:00;;;;;;;15.37;14.80;;;19.20;1.00;;;;;;4978157;28;20928;-81
2023/07/30 03:14:28;;;;;;;16.03;15.40;;;19.20;1.00;;;;;;4982767;28;20566;-81
2023/07/30 03:16:56;;;;;;;15.40;14.80;;;19.20;1.00;;;;;;4977195;28;20952;-81
2023/07/30 03:19:25;;;;;;;15.90;15.30;;;19.20;1.00;;;;;;4980468;28;20469;-81
2023/07/30 03:21:54;;;;;;;15.40;14.80;;;19.20;1.00;;;;;;4983181;28;20486;-81
2023/07/30 03:24:22;;;;;;;15.17;14.67;;;19.20;1.00;;;;;;4981145;28;20460;-82
2023/07/30 03:26:50;;;;;;;15.77;15.27;;;19.20;1.00;;;;;;4979931;28;21466;-83
2023/07/30 03:29:19;;;;;;;15.73;15.10;;;19.20;1.00;;;;;;4980337;28;20446;-82
2023/07/30 03:31:47;;;;;;;15.57;14.77;;;19.10;1.00;;;;;;4981037;28;20482;-81
2023/07/30 03:34:15;;;;;;;15.63;15.03;;;19.10;1.00;;;;;;4982589;28;20501;-81
2023/07/30 03:36:43;;;;;;;15.80;15.20;;;19.20;1.00;;;;;;4978033;28;20473;-83
2023/07/30 03:39:12;;;;;;;15.60;15.10;;;19.20;1.00;;;;;;4979492;28;20848;-82
2023/07/30 03:41:42;;;;;;;15.43;14.93;;;19.20;1.00;;;;;;4981744;28;20504;-81
2023/07/30 03:44:10;;;;;;;15.80;15.20;;;19.20;1.00;;;;;;4984053;28;20958;-81
2023/07/30 03:46:38;;;;;;;15.30;14.60;;;19.20;1.00;;;;;;4985792;28;20541;-80
2023/07/30 03:49:06;;;;;;;15.37;14.60;;;19.20;1.00;;;;;;4983855;28;20480;-81
2023/07/30 03:51:34;;;;;;;15.33;14.83;;;19.20;1.00;;;;;;4981371;28;20481;-80
2023/07/30 03:54:03;;;;;;;15.70;15.00;;;19.10;5.60;;;;;;4982208;28;20514;-81
2023/07/30 03:56:33;;;;;;;15.50;14.90;;;19.10;17.70;;;;;;4980484;28;20447;-81
2023/07/30 03:59:01;;;;;;;15.50;14.90;;;19.10;14.50;;;;;;4979290;28;20466;-82
2023/07/30 04:01:30;;;;;;;15.30;14.80;;;19.10;14.60;;;;;;4977438;28;20461;-81
2023/07/30 04:03:58;;;;;;;15.30;14.70;;;19.10;14.90;;;;;;4980340;28;20751;-82
2023/07/30 04:06:26;;;;;;;15.63;15.03;;;19.10;13.90;;;;;;4981762;28;20542;-82
2023/07/30 04:08:54;;;;;;;15.13;14.63;;;19.10;12.30;;;;;;4981534;28;20462;-82
2023/07/30 04:11:23;;;;;;;16.27;15.40;;;19.10;6.80;;;;;;4979783;28;20489;-81
2023/07/30 04:13:52;;;;;;;15.50;15.00;;;19.10;5.60;;;;;;4980192;28;20471;-81
2023/07/30 04:16:20;;;;;;;15.47;15.00;;;19.10;1.00;;;;;;4980309;28;20459;-80
2023/07/30 04:18:48;;;;;;;15.70;14.90;;;19.10;1.00;;;;;;4980214;28;20455;-81
2023/07/30 04:21:16;;;;;;;15.40;14.70;;;19.10;1.00;;;;;;4981700;28;20996;-80
2023/07/30 04:23:45;;;;;;;15.53;14.80;;;19.10;2.50;;;;;;4980120;28;21012;-81
2023/07/30 04:26:13;;;;;;;15.57;14.87;;;19.10;1.00;;;;;;4981224;28;21034;-81
2023/07/30 04:28:41;;;;;;;16.20;15.50;;;19.10;1.00;;;;;;4979779;28;20458;-81
2023/07/30 04:31:10;;;;;;;15.83;15.23;;;19.10;1.00;;;;;;4978925;28;20507;-82
2023/07/30 04:33:38;;;;;;;15.87;15.27;;;19.10;1.00;;;;;;4978727;28;20470;-82
2023/07/30 04:36:07;;;;;;;15.70;15.10;;;19.10;1.00;;;;;;4977707;28;20589;-81
2023/07/30 04:38:36;;;;;;;15.80;15.20;;;19.10;1.00;;;;;;4981260;28;20474;-82
2023/07/30 04:41:04;;;;;;;15.97;15.17;;;19.10;1.00;;;;;;4981381;28;20839;-82
2023/07/30 04:43:32;;;;;;;15.63;15.10;;;19.10;1.00;;;;;;4977561;28;20470;-82
2023/07/30 04:46:00;;;;;;;15.70;15.10;;;19.10;1.00;;;;;;4978210;28;20447;-82
2023/07/30 04:48:30;;;;;;;15.93;15.33;;;19.10;1.00;;;;;;4976287;28;20478;-82
2023/07/30 04:50:58;;;;;;;15.87;15.27;;;19.20;1.00;;;;;;4977276;28;20690;-82
2023/07/30 04:53:26;;;;;;;15.37;14.87;;;19.10;1.00;;;;;;4979074;28;20561;-80
2023/07/30 04:55:58;;;;;;;15.80;15.27;;;19.20;1.40;;;;;;4982989;28;20478;-80
2023/07/30 04:58:26;;;;;;;16.03;15.43;;;19.20;3.90;;;;;;4980970;28;20469;-81
2023/07/30 05:00:54;;;;;;;15.90;15.20;;;19.20;1.90;;;;;;4980679;28;20554;-80
2023/07/30 05:03:22;;;;;;;15.23;14.73;;;19.20;1.00;;;;;;4979140;28;20478;-81
2023/07/30 05:05:52;;;;;;;15.57;15.07;;;19.20;1.00;;;;;;4980921;28;20500;-81
2023/07/30 05:08:20;;;;;;;16.27;15.63;;;19.20;1.00;;;;;;4977560;28;20521;-81
2023/07/30 05:10:48;;;;;;;15.40;14.90;;;19.20;1.00;;;;;;4975547;28;20460;-82
2023/07/30 05:13:16;;;;;;;15.93;15.27;;;19.20;1.00;;;;;;4976126;28;20470;-81
2023/07/30 05:15:44;;;;;;;15.20;14.70;;;19.10;1.00;;;;;;4981083;28;20609;-81
2023/07/30 05:18:13;;;;;;;15.60;15.00;;;19.10;1.00;;;;;;4979673;28;20537;-81
2023/07/30 05:20:41;;;;;;;15.90;15.30;;;19.10;1.00;;;;;;4979747;28;20466;-82
2023/07/30 05:23:11;;;;;;;15.70;15.00;;;19.20;1.00;;;;;;4978751;28;20486;-82
2023/07/30 05:25:39;;;;;;;15.33;14.83;;;19.10;1.30;;;;;;4979276;28;21442;-79
2023/07/30 05:28:07;;;;;;;15.47;14.97;;;19.10;1.00;;;;;;4980615;28;20455;-79
2023/07/30 05:30:35;;;;;;;15.50;15.00;;;19.10;1.00;;;;;;4979274;28;20450;-80
2023/07/30 05:33:04;;;;;;;15.20;14.70;;;19.20;1.00;;;;;;4977495;28;20493;-79
2023/07/30 05:35:32;;;;;;;15.17;14.57;;;19.20;1.00;;;;;;4978411;28;20554;-81
2023/07/30 05:38:00;;;;;;;15.07;14.57;;;19.20;1.00;;;;;;4979725;28;20459;-81
2023/07/30 05:40:30;;;;;;;15.43;14.93;;;19.10;1.00;;;;;;4978478;28;20470;-81
2023/07/30 05:43:00;;;;;;;15.07;14.67;;;19.10;1.00;;;;;;4978722;28;20656;-80
2023/07/30 05:45:29;;;;;;;15.37;14.77;;;19.20;1.00;;;;;;4981835;28;20466;-80
2023/07/30 05:47:57;;;;;;;15.47;14.87;;;19.20;1.00;;;;;;4979217;28;20465;-81
2023/07/30 05:50:26;;;;;;;14.87;14.43;;;19.20;1.00;;;;;;4979406;28;20459;-81
2023/07/30 05:52:54;;;;;;;16.03;15.37;;;19.20;4.60;;;;;;4980509;28;20573;-80
2023/07/30 05:55:22;;;;;;;15.40;14.80;;;19.20;1.00;;;;;;4978368;28;20474;-80
2023/07/30 05:57:53;;;;;;;15.07;14.50;;;19.20;1.00;;;;;;4980276;28;20455;-81
2023/07/30 06:00:21;;;;;;;15.20;14.70;;;19.20;1.00;;;;;;4978270;28;21310;-82
2023/07/30 06:02:49;;;;;;;16.50;15.80;;;19.20;1.00;;;;;;4978598;28;21429;-81
2023/07/30 06:05:17;;;;;;;16.23;15.47;;;19.20;1.00;;;;;;4979073;28;20992;-79
2023/07/30 06:07:45;;;;;;;14.70;14.30;;;19.20;1.00;;;;;;4978429;28;20458;-79
2023/07/30 06:10:13;;;;;;;15.20;14.60;;;19.30;1.00;;;;;;4979696;28;20466;-80
2023/07/30 06:12:42;;;;;;;15.40;14.70;;;19.30;5.80;;;;;;4981004;28;20470;-80
2023/07/30 06:15:12;;;;;;;15.23;14.53;;;19.30;4.50;;;;;;4982670;28;20466;-81
2023/07/30 06:17:40;;;;;;;15.40;14.80;;;19.30;1.00;;;;;;4978260;28;21030;-81
2023/07/30 06:20:10;;;;;;;14.80;14.40;;;19.40;3.20;;;;;;4980351;28;20495;-81
2023/07/30 06:22:38;;;;;;;15.20;14.70;;;19.40;1.00;;;;;;4982033;28;20478;-81
2023/07/30 06:25:07;;;;;;;15.30;14.80;;;19.50;1.00;;;;;;4982441;28;20465;-81
2023/07/30 06:27:35;;;;;;;15.17;14.67;;;19.50;1.00;;;;;;4980583;28;20450;-79
2023/07/30 06:30:04;;;;;;;15.63;15.03;;;19.70;1.00;;;;;;4983471;28;20482;-80
2023/07/30 06:32:41;;;;;;;15.37;14.87;;;19.70;1.00;;;;;;4986322;28;20496;-80
2023/07/30 06:35:10;;;;;;;15.10;14.60;;;19.70;1.00;;;;;;4983799;28;20515;-80
2023/07/30 06:37:38;;;;;;;17.13;16.40;;;19.90;1.00;;;;;;4982138;28;21420;-80
2023/07/30 06:40:08;;;;;;;15.90;15.30;;;20.10;1.00;;;;;;4984331;28;22149;-80
2023/07/30 06:42:36;;;;;;;15.50;15.00;;;20.40;1.00;;;;;;4981505;28;20475;-82
2023/07/30 06:45:05;;;;;;;16.73;16.13;;;20.60;1.00;;;;;;4984079;28;20463;-81
2023/07/30 06:47:34;;;;;;;15.60;15.10;;;20.70;1.00;;;;;;4983794;28;20993;-82
2023/07/30 06:50:08;;;;;;;14.97;14.57;;;20.80;1.00;;;;;;4980844;28;21038;-81
2023/07/30 06:52:36;;;;;;;15.33;14.93;;;20.90;1.00;;;;;;4980745;28;20529;-82
2023/07/30 06:55:05;;;;;;;14.93;14.53;;;20.80;99.90;;;;;;4978497;28;20477;-80
2023/07/30 06:57:33;;;;;;;15.20;14.80;;;20.80;99.90;;;;;;4981174;28;20486;-82
2023/07/30 07:00:02;;;;;;;15.50;15.00;;;20.70;99.90;;;;;;4982078;28;20455;-80
2023/07/30 07:02:32;;;;;;;15.50;15.00;;;20.60;99.90;;;;;;4974494;28;20555;-80
2023/07/30 07:05:01;;;;;;;15.60;15.10;;;20.50;1.00;;;;;;4980127;28;20448;-77
2023/07/30 07:07:31;;;;;;;15.27;14.77;;;20.40;1.00;;;;;;4978571;28;20454;-79
2023/07/30 07:09:59;;;;;;;15.40;14.80;;;20.30;1.00;;;;;;4977385;28;20489;-76
2023/07/30 07:12:27;;;;;;;17.13;16.43;;;20.30;1.00;;;;;;4979317;28;20478;-80
2023/07/30 07:14:58;;;;;;;15.83;15.23;;;20.20;1.00;;;;;;4979981;28;20959;-79
2023/07/30 07:17:26;;;;;;;15.63;15.03;;;20.20;1.00;;;;;;4980617;28;20470;-81
2023/07/30 07:19:54;;;;;;;14.93;14.53;;;20.20;1.00;;;;;;4978752;28;20468;-80
2023/07/30 07:22:22;;;;;;;15.20;14.70;;;20.10;1.00;;;;;;4977736;28;20481;-80
2023/07/30 07:24:53;;;;;;;15.20;14.70;;;20.10;1.00;;;;;;4977790;28;20469;-80
2023/07/30 07:27:23;;;;;;;15.13;14.50;;;20.00;1.00;;;;;;4976937;28;20492;-80
2023/07/30 07:29:51;;;;;;;15.47;14.97;;;20.00;1.00;;;;;;4981255;28;20460;-78
2023/07/30 07:32:19;;;;;;;15.53;14.93;;;20.00;1.00;;;;;;4966301;28;20486;-80
2023/07/30 07:34:48;;;;;;;15.50;14.90;;;19.90;1.00;;;;;;4979082;28;20444;-78
2023/07/30 07:37:18;;;;;;;14.80;14.40;;;19.90;1.00;;;;;;4972236;28;20500;-78
2023/07/30 07:39:47;;;;;;;15.63;15.13;;;19.90;1.00;;;;;;4975641;28;20470;-79
2023/07/30 07:42:16;;;;;;;15.03;14.53;;;19.90;1.00;;;;;;4977265;28;20478;-79
2023/07/30 07:44:45;;;;;;;15.00;14.50;;;19.90;1.00;;;;;;4976820;28;20828;-81
2023/07/30 07:47:14;;;;;;;15.07;14.57;;;19.90;1.00;;;;;;4981721;28;20459;-81
2023/07/30 07:49:44;;;;;;;14.80;14.30;;;19.90;1.00;;;;;;4979375;28;20472;-81
2023/07/30 07:52:12;;;;;;;16.17;15.00;;;20.00;1.00;;;;;;4971587;28;20466;-80
2023/07/30 07:54:41;;;;;;;15.00;14.40;;;20.00;1.00;;;;;;4975786;28;20471;-81
2023/07/30 07:57:10;;;;;;;15.13;14.63;;;20.00;1.00;;;;;;4975811;28;20614;-81
2023/07/30 07:59:41;;;;;;;15.07;14.57;;;20.00;1.00;;;;;;4978875;28;20462;-82
2023/07/30 08:02:09;;;;;;;14.70;14.17;;;20.00;1.00;;;;;;4984146;28;20478;-80
2023/07/30 08:04:37;;;;;;;14.50;14.10;;;20.00;1.00;;;;;;4985100;28;20614;-80
2023/07/30 08:07:06;;;;;;;14.70;14.30;;;20.10;1.00;;;;;;4982575;28;20653;-81
2023/07/30 08:09:34;;;;;;;15.07;14.60;;;20.10;1.00;;;;;;4975191;28;20458;-81
2023/07/30 08:12:02;;;;;;;15.17;14.67;;;20.20;1.00;;;;;;4979611;28;20569;-82
2023/07/30 08:17:28;;;;;;;14.53;14.07;;;20.40;1.00;;;;;;4975506;28;20898;-81
2023/07/30 08:20:54;;;;;;;14.63;14.13;;;20.60;1.00;;;;;;4980377;28;20883;-82
2023/07/30 08:23:31;;;;;;;15.17;14.67;;;20.70;1.00;;;;;;4980044;28;21237;-81
2023/07/30 08:26:00;;;;;;;15.03;14.50;;;20.80;1.00;;;;;;4979013;28;20471;-81
2023/07/30 08:31:13;;;;;;;15.40;14.90;;;20.90;1.00;;;;;;4983440;28;20455;-81
2023/07/30 08:33:45;;;;;;;15.97;15.47;;;21.00;1.00;;;;;;4982779;28;20470;-80
2023/07/30 08:36:15;;;;;;;16.30;15.73;;;21.00;99.90;;;;;;4982676;28;20545;-81
2023/07/30 08:38:43;;;;;;;15.37;14.87;;;21.00;99.90;;;;;;4979840;28;20963;-81
2023/07/30 08:45:24;;;;;;;15.70;15.10;;;21.10;1.00;;;;;;4921513;29;20503;-81
2023/07/30 08:51:30;;;;;;;16.00;15.50;;;21.20;99.90;;;;;;4915178;29;20934;-81
2023/07/30 08:54:00;;;;;;;15.70;15.20;;;21.20;15.60;;;;;;4915025;29;20497;-80
2023/07/30 08:56:29;;;;;;;15.77;15.23;;;21.30;1.00;;;;;;4910049;29;20458;-81
2023/07/30 08:58:59;;;;;;;15.80;15.30;;;21.30;99.90;;;;;;4905232;28;20471;-80
2023/07/30 09:01:30;;;;;;;15.40;14.90;;;21.30;99.90;;;;;;4910546;29;20472;-80
2023/07/30 09:04:00;;;;;;;15.70;15.20;;;21.30;1.00;;;;;;4910195;29;20472;-80
2023/07/30 09:06:30;;;;;;;15.83;15.33;;;21.30;1.00;;;;;;4906749;29;20556;-79
2023/07/30 09:08:58;;;;;;;15.97;15.37;;;21.20;99.90;;;;;;4910460;29;20493;-80
2023/07/30 09:11:27;;;;;;;15.63;15.13;;;21.10;99.90;;;;;;4915593;29;20477;-79
2023/07/30 09:14:00;;;;;;;16.03;15.33;;;21.10;99.90;;;;;;4919833;29;20496;-81
2023/07/30 09:16:32;;;;;;;15.80;15.30;;;21.00;63.90;;;;;;4920585;29;20472;-81
2023/07/30 09:19:03;;;;;;;15.57;14.97;;;21.00;99.90;;;;;;4955701;28;20468;-80
2023/07/30 09:21:35;;;;;;;15.40;14.90;;;20.90;1.00;;;;;;4906290;29;20517;-80
2023/07/30 09:24:06;;;;;;;15.70;15.20;;;20.80;1.00;;;;;;4908433;29;22337;-80
2023/07/30 09:26:44;;;;;;;15.60;15.10;;;20.80;99.90;;;;;;4909305;29;20987;-80
2023/07/30 09:29:12;;;;;;;15.57;15.00;;;20.70;1.00;;;;;;4910089;29;20472;-80
2023/07/30 09:31:54;;;;;;;15.20;14.70;;;20.60;99.90;;;;;;4909285;29;20501;-80
2023/07/30 09:34:24;;;;;;;15.60;15.00;;;20.60;1.00;;;;;;4911782;29;20457;-80
2023/07/30 09:36:54;;;;;;;15.57;15.00;;;20.60;99.90;;;;;;4904911;29;20551;-79
2023/07/30 09:39:24;;;;;;;15.40;14.90;;;20.60;99.90;;;;;;4905414;29;20459;-78
2023/07/30 09:42:01;;;;;;;16.27;15.13;;;20.50;1.00;;;;;;4910777;29;20553;-81
2023/07/30 09:44:33;;;;;;;15.50;14.63;;;20.60;1.00;;;;;;4908944;28;20457;-81
2023/07/30 09:47:04;;;;;;;16.90;16.27;;;20.60;13.40;;;;;;4907298;29;20457;-80
2023/07/30 09:49:34;;;;;;;15.93;15.43;;;20.70;1.00;;;;;;4905587;29;20493;-81
2023/07/30 09:52:05;;;;;;;15.80;15.10;;;20.70;99.90;;;;;;4921294;29;20501;-81
2023/07/30 09:54:35;;;;;;;15.50;15.10;;;20.70;1.00;;;;;;4907144;29;20600;-80
2023/07/30 09:57:04;;;;;;;15.57;15.07;;;20.70;1.00;;;;;;4906409;29;20466;-81
2023/07/30 09:59:33;;;;;;;16.03;15.53;;;20.80;99.90;;;;;;4912915;29;20544;-82
2023/07/30 10:02:02;;;;;;;16.20;15.60;;;20.90;99.90;;;;;;4920776;29;20522;-81
2023/07/30 10:04:34;;;;;;;15.63;15.10;;;21.10;1.00;;;;;;4928029;28;20464;-81
2023/07/30 10:07:09;;;;;;;15.40;14.90;;;21.20;94.20;;;;;;4915753;29;20489;-79
2023/07/30 10:09:43;;;;;;;15.93;15.43;;;21.20;1.00;;;;;;4917158;29;20464;-81
2023/07/30 10:12:13;;;;;;;17.00;16.30;;;21.30;99.90;;;;;;4913408;29;20480;-80
2023/07/30 10:14:42;;;;;;;16.07;15.53;;;21.30;99.90;;;;;;4916858;29;20472;-81
2023/07/30 10:17:12;;;;;;;15.83;15.33;;;21.50;1.00;;;;;;4920369;29;21022;-81
2023/07/30 10:19:40;;;;;;;16.23;15.50;;;21.40;99.90;;;;;;4919233;29;20879;-81
2023/07/30 10:22:25;;;;;;;16.30;15.80;;;21.40;99.90;;;;;;4921861;29;20510;-80
2023/07/30 10:25:01;;;;;;;16.07;15.57;;;21.40;99.90;;;;;;4916524;29;20461;-80
2023/07/30 10:27:37;;;;;;;15.60;15.10;;;21.40;49.70;;;;;;4919771;29;20483;-81
2023/07/30 10:30:16;;;;;;;16.93;16.30;;;21.50;41.20;;;;;;4935546;29;20465;-82
2023/07/30 10:33:00;;;;;;;15.40;14.90;;;21.60;1.00;;;;;;4921963;29;20484;-81
2023/07/30 10:35:41;;;;;;;16.23;15.47;;;21.70;1.00;;;;;;4921221;29;20466;-80
2023/07/30 10:38:24;;;;;;;15.30;14.80;;;21.70;1.00;;;;;;4923951;29;20488;-81
2023/07/30 10:41:05;;;;;;;17.00;16.40;;;21.80;1.00;;;;;;4919343;29;20578;-81
2023/07/30 10:43:36;;;;;;;16.10;15.50;;;21.70;1.00;;;;;;4922464;29;20487;-80
2023/07/30 10:46:04;;;;;;;16.37;15.77;;;21.80;1.00;;;;;;4919711;29;20456;-81
2023/07/30 10:48:35;;;;;;;15.90;15.30;;;21.90;1.00;;;;;;4919569;29;20543;-80
2023/07/30 10:51:15;;;;;;;15.60;15.10;;;21.90;1.00;;;;;;4919150;29;20461;-80
2023/07/30 10:53:45;;;;;;;16.10;15.37;;;21.90;1.00;;;;;;4918128;29;20926;-80
2023/07/30 10:56:17;;;;;;;15.27;14.77;;;21.80;1.00;;;;;;4918832;29;20517;-80
2023/07/30 10:58:51;;;;;;;15.60;15.10;;;21.80;1.00;;;;;;4913016;29;20486;-81
2023/07/30 11:01:19;;;;;;;15.10;14.60;;;21.90;1.00;;;;;;4919060;29;20463;-80
2023/07/30 11:03:50;;;;;;;15.30;14.90;;;21.90;1.00;;;;;;4922132;29;20484;-81
2023/07/30 11:06:22;;;;;;;15.57;14.97;;;21.90;1.00;;;;;;4924677;29;20461;-81
2023/07/30 11:08:52;;;;;;;14.97;14.47;;;21.90;99.90;;;;;;4919579;29;20811;-80
2023/07/30 11:11:20;;;;;;;15.40;14.80;;;22.00;99.90;;;;;;4920652;29;20509;-80
2023/07/30 11:13:49;;;;;;;14.83;14.30;;;22.00;99.90;;;;;;4914722;29;21139;-80
2023/07/30 11:16:18;;;;;;;14.50;14.00;;;22.10;99.90;;;;;;4916826;29;20486;-80
2023/07/30 11:18:47;;;;;;;15.50;14.70;;;22.20;99.90;;;;;;4921577;29;20491;-81
2023/07/30 11:21:17;;;;;;;14.83;14.43;;;22.20;99.90;;;;;;4923615;29;20483;-81
2023/07/30 11:23:46;;;;;;;14.60;14.10;;;22.20;99.90;;;;;;4921596;29;20479;-80
2023/07/30 11:26:17;;;;;;;14.57;14.10;;;22.30;99.90;;;;;;4922316;29;20873;-81
2023/07/30 11:28:46;;;;;;;15.30;14.80;;;22.30;99.90;;;;;;4921456;29;20791;-81
2023/07/30 11:31:17;;;;;;;15.30;14.80;;;22.30;99.90;;;;;;4918394;29;21093;-80
2023/07/30 11:33:46;;;;;;;14.67;14.07;;;22.30;99.90;;;;;;4925923;29;21004;-81
2023/07/30 11:36:17;;;;;;;14.40;13.90;;;22.30;99.90;;;;;;4943536;29;20463;-81
2023/07/30 11:38:46;;;;;;;14.80;14.30;;;22.30;99.90;;;;;;4927956;29;20494;-81
2023/07/30 11:41:16;;;;;;;14.70;14.20;;;22.30;99.90;;;;;;4929356;29;21061;-81
2023/07/30 11:43:45;;;;;;;14.40;13.90;;;22.20;99.90;;;;;;4927467;29;20516;-82
2023/07/30 11:46:15;;;;;;;14.10;13.60;;;22.10;99.90;;;;;;4923841;29;20907;-80
2023/07/30 11:48:45;;;;;;;14.77;14.27;;;22.20;99.90;;;;;;4920337;29;20599;-81
2023/07/30 11:51:24;;;;;;;15.03;14.30;;;22.30;99.90;;;;;;4924916;29;20468;-80
2023/07/30 11:53:54;;;;;;;15.13;14.67;;;22.30;99.90;;;;;;4910258;29;20519;-80
2023/07/30 11:56:25;;;;;;;14.00;13.57;;;22.30;1.00;;;;;;4935696;29;20464;-80
2023/07/30 11:58:56;;;;;;;14.80;14.20;;;22.20;1.00;;;;;;4924556;29;20483;-80
2023/07/30 12:01:25;;;;;;;14.30;13.67;;;22.10;99.90;;;;;;4922003;29;20696;-80
2023/07/30 12:03:56;;;;;;;14.53;13.83;;;22.10;1.00;;;;;;4926221;29;20495;-81
2023/07/30 12:06:24;;;;;;;14.93;14.33;;;22.10;1.00;;;;;;4921391;29;20526;-80
2023/07/30 12:08:53;;;;;;;16.20;15.50;;;22.00;1.00;;;;;;4924600;29;20466;-80
2023/07/30 12:11:24;;;;;;;14.80;14.20;;;22.10;1.00;;;;;;4918602;29;20905;-80
2023/07/30 12:13:53;;;;;;;14.70;14.20;;;22.10;1.00;;;;;;4921185;29;20491;-81
2023/07/30 12:16:21;;;;;;;15.00;14.30;;;22.10;99.90;;;;;;4920849;29;20499;-81
2023/07/30 12:18:49;;;;;;;15.00;14.40;;;22.00;1.00;;;;;;4921881;29;20491;-81
2023/07/30 12:21:17;;;;;;;15.03;14.43;;;22.00;1.00;;;;;;4919373;29;20495;-80
2023/07/30 12:23:46;;;;;;;14.70;14.10;;;22.00;99.90;;;;;;4914706;29;20494;-80
2023/07/30 12:26:14;;;;;;;14.20;13.60;;;22.00;1.00;;;;;;4918974;29;20468;-80
2023/07/30 12:28:43;;;;;;;14.70;14.10;;;21.90;99.90;;;;;;4914138;29;20552;-81
2023/07/30 12:31:12;;;;;;;13.80;13.40;;;21.80;99.90;;;;;;4923882;29;20482;-80
2023/07/30 12:33:40;;;;;;;14.37;13.80;;;21.90;99.90;;;;;;4921100;29;20851;-80
2023/07/30 12:36:08;;;;;;;14.57;14.07;;;22.10;99.90;;;;;;4916535;29;20468;-81
2023/07/30 12:38:36;;;;;;;14.50;13.97;;;22.20;99.90;;;;;;4945051;28;21017;-80
2023/07/30 12:41:04;;;;;;;14.30;13.90;;;22.30;99.90;;;;;;4919903;29;20464;-80
2023/07/30 12:43:32;;;;;;;14.20;13.77;;;22.40;99.90;;;;;;4914495;29;20481;-80
2023/07/30 12:46:02;;;;;;;14.67;14.07;;;22.40;99.90;;;;;;4919735;29;20467;-80
2023/07/30 12:48:31;;;;;;;14.93;14.43;;;22.30;99.90;;;;;;4924579;29;20464;-81
2023/07/30 12:51:00;;;;;;;14.10;13.70;;;22.20;99.90;;;;;;4935433;28;20556;-81
2023/07/30 12:53:29;;;;;;;14.03;13.63;;;22.10;99.90;;;;;;4920703;29;20982;-80
2023/07/30 12:58:57;;;;;;;13.50;13.10;;;22.00;99.90;;;;;;4918158;29;20631;-80
2023/07/30 13:01:26;;;;;;;14.13;13.60;;;22.00;99.90;;;;;;4918587;29;20456;-79